createdAt,value
2018-11-23T00:00:20.817Z,22.87
2018-11-23T00:02:49.932Z,14.67
2018-11-23T00:05:18.179Z,11.43
2018-11-23T00:07:46.246Z,8.97
2018-11-23T00:10:15.725Z,24.87
2018-11-23T00:12:43.659Z,17.83
2018-11-23T00:15:12.473Z,27.00
2018-11-23T00:17:40.771Z,12.70
2018-11-23T00:20:11.301Z,12.40
2018-11-23T00:22:39.470Z,14.07
2018-11-23T00:25:08.657Z,15.33
2018-11-23T00:27:36.731Z,12.73
2018-11-23T00:30:05.775Z,15.43
2018-11-23T00:32:33.548Z,13.37
2018-11-23T00:35:01.921Z,11.93
2018-11-23T00:37:30.007Z,13.77
2018-11-23T00:39:58.486Z,13.23
2018-11-23T00:42:27.070Z,11.67
2018-11-23T00:44:55.508Z,13.60
2018-11-23T00:47:24.062Z,15.40
2018-11-23T00:49:52.425Z,13.10
2018-11-23T00:52:21.015Z,13.33
2018-11-23T00:54:48.744Z,11.70
2018-11-23T00:57:17.377Z,16.27
2018-11-23T00:59:45.864Z,15.23
2018-11-23T01:02:13.667Z,12.43
2018-11-23T01:04:41.380Z,14.33
2018-11-23T01:07:09.485Z,13.87
2018-11-23T01:09:37.663Z,18.53
2018-11-23T01:12:05.433Z,17.73
2018-11-23T01:14:33.206Z,16.67
2018-11-23T01:17:01.313Z,15.27
2018-11-23T01:19:29.757Z,15.47
2018-11-23T01:21:58.351Z,17.00
2018-11-23T01:24:26.851Z,18.87
2018-11-23T01:26:55.312Z,15.30
2018-11-23T01:29:23.554Z,16.97
2018-11-23T01:31:51.786Z,16.50
2018-11-23T01:34:19.589Z,19.27
2018-11-23T01:36:47.333Z,17.30
2018-11-23T01:39:15.810Z,17.33
2018-11-23T01:41:44.307Z,18.20
2018-11-23T01:44:12.891Z,18.60
2018-11-23T01:46:41.349Z,22.37
2018-11-23T01:49:09.784Z,21.93
2018-11-23T01:51:38.330Z,21.37
2018-11-23T01:54:06.436Z,19.73
2018-11-23T01:56:34.531Z,21.27
2018-11-23T01:59:02.587Z,19.83
2018-11-23T02:01:30.360Z,18.57
2018-11-23T02:03:58.019Z,17.17
2018-11-23T02:06:26.242Z,19.30
2018-11-23T02:08:54.761Z,20.40
2018-11-23T02:11:23.286Z,21.63
2018-11-23T02:13:51.351Z,21.63
2018-11-23T02:16:19.936Z,21.53
2018-11-23T02:18:48.423Z,17.57
2018-11-23T02:21:16.516Z,21.77
2018-11-23T02:23:44.113Z,18.73
2018-11-23T02:26:12.418Z,17.47
2018-11-23T02:28:40.436Z,17.50
2018-11-23T02:31:09.153Z,17.50
2018-11-23T02:33:39.043Z,19.73
2018-11-23T02:36:08.146Z,17.30
2018-11-23T02:38:35.819Z,16.63
2018-11-23T02:41:03.988Z,18.60
2018-11-23T02:43:32.505Z,19.70
2018-11-23T02:46:00.232Z,21.53
2018-11-23T02:48:28.138Z,18.87
2018-11-23T02:50:56.220Z,19.27
2018-11-23T02:53:23.860Z,18.93
2018-11-23T02:55:52.275Z,21.07
2018-11-23T02:58:20.746Z,20.03
2018-11-23T03:00:47.997Z,19.93
2018-11-23T03:03:16.395Z,18.93
2018-11-23T03:05:44.565Z,20.57
2018-11-23T03:08:12.637Z,18.30
2018-11-23T03:10:41.027Z,16.57
2018-11-23T03:13:09.202Z,18.47
2018-11-23T03:15:37.392Z,17.47
2018-11-23T03:18:06.178Z,18.67
2018-11-23T03:20:34.655Z,19.40
2018-11-23T03:23:02.845Z,18.43
2018-11-23T03:25:50.022Z,16.47
2018-11-23T03:28:17.727Z,14.90
2018-11-23T03:30:46.099Z,15.20
2018-11-23T03:33:13.770Z,17.03
2018-11-23T03:35:42.258Z,18.00
2018-11-23T03:38:10.226Z,17.53
2018-11-23T03:40:38.312Z,19.13
2018-11-23T03:43:06.393Z,20.87
2018-11-23T03:45:34.473Z,20.07
2018-11-23T03:48:02.923Z,20.00
2018-11-23T03:50:30.614Z,23.17
2018-11-23T03:52:59.115Z,21.57
2018-11-23T03:55:26.903Z,25.00
2018-11-23T03:57:55.227Z,25.63
2018-11-23T04:00:23.927Z,26.60
2018-11-23T04:02:52.753Z,26.23
2018-11-23T04:05:20.860Z,22.20
2018-11-23T04:07:48.502Z,25.90
2018-11-23T04:10:17.417Z,23.53
2018-11-23T04:12:45.458Z,21.60
2018-11-23T04:15:13.837Z,21.43
2018-11-23T04:17:41.832Z,24.77
2018-11-23T04:20:11.852Z,21.00
2018-11-23T04:22:40.437Z,22.27
2018-11-23T04:25:08.001Z,19.87
2018-11-23T04:27:36.491Z,17.83
2018-11-23T04:30:05.262Z,22.87
2018-11-23T04:32:33.794Z,21.10
2018-11-23T04:35:01.444Z,21.83
2018-11-23T04:37:29.451Z,20.53
2018-11-23T04:39:57.973Z,24.07
2018-11-23T04:42:26.078Z,23.37
2018-11-23T04:44:54.179Z,23.70
2018-11-23T04:47:22.659Z,24.20
2018-11-23T04:49:50.729Z,26.70
2018-11-23T04:52:18.510Z,28.90
2018-11-23T04:54:46.578Z,29.43
2018-11-23T04:57:14.782Z,27.67
2018-11-23T04:59:42.425Z,29.97
2018-11-23T05:02:10.115Z,29.07
2018-11-23T05:04:38.171Z,28.63
2018-11-23T05:07:06.664Z,30.13
2018-11-23T05:09:35.135Z,30.43
2018-11-23T05:12:03.734Z,31.20
2018-11-23T05:14:31.796Z,31.30
2018-11-23T05:16:59.991Z,34.17
2018-11-23T05:19:32.807Z,32.63
2018-11-23T05:21:56.213Z,30.23
2018-11-23T05:24:24.450Z,25.17
2018-11-23T05:26:53.008Z,27.13
2018-11-23T05:29:20.811Z,28.07
2018-11-23T05:31:48.830Z,38.53
2018-11-23T05:34:16.934Z,39.13
2018-11-23T05:36:45.396Z,83.37
2018-11-23T05:39:13.238Z,54.73
2018-11-23T05:41:41.389Z,48.37
2018-11-23T05:44:09.552Z,49.63
2018-11-23T05:46:38.036Z,70.30
2018-11-23T05:49:06.203Z,45.27
2018-11-23T05:51:34.704Z,67.60
2018-11-23T05:54:02.688Z,55.00
2018-11-23T05:56:30.435Z,44.50
2018-11-23T05:58:58.944Z,57.73
2018-11-23T06:01:27.008Z,44.73
2018-11-23T06:03:55.504Z,43.93
2018-11-23T06:06:23.673Z,41.70
2018-11-23T06:08:52.068Z,56.20
2018-11-23T06:11:20.180Z,39.57
2018-11-23T06:13:48.635Z,35.17
2018-11-23T06:16:17.104Z,45.90
2018-11-23T06:18:45.217Z,67.57
2018-11-23T06:21:13.376Z,46.33
2018-11-23T06:23:41.552Z,37.00
2018-11-23T06:26:29.283Z,42.70
2018-11-23T06:28:56.938Z,32.67
2018-11-23T06:31:24.606Z,36.37
2018-11-23T06:33:53.061Z,35.33
2018-11-23T06:36:21.626Z,33.17
2018-11-23T06:38:49.973Z,39.03
2018-11-23T06:41:18.141Z,37.33
2018-11-23T06:43:46.128Z,33.80
2018-11-23T06:46:14.215Z,34.37
2018-11-23T06:48:42.288Z,33.53
2018-11-23T06:51:10.467Z,35.50
2018-11-23T06:53:38.644Z,35.63
2018-11-23T06:56:07.234Z,36.60
2018-11-23T06:58:35.309Z,39.23
2018-11-23T07:01:03.896Z,33.03
2018-11-23T07:03:32.486Z,37.73
2018-11-23T07:06:00.999Z,31.57
2018-11-23T07:08:29.196Z,33.33
2018-11-23T07:11:16.499Z,29.87
2018-11-23T07:13:44.263Z,35.57
2018-11-23T07:16:12.417Z,32.60
2018-11-23T07:18:40.938Z,31.83
2018-11-23T07:21:08.963Z,29.80
2018-11-23T07:23:37.052Z,32.33
2018-11-23T07:26:05.329Z,36.40
2018-11-23T07:28:33.503Z,30.93
2018-11-23T07:31:02.528Z,29.10
2018-11-23T07:33:29.426Z,29.53
2018-11-23T07:35:56.357Z,29.67
2018-11-23T07:38:25.018Z,30.53
2018-11-23T07:41:31.665Z,30.07
2018-11-23T07:44:00.135Z,32.03
2018-11-23T07:46:27.979Z,75.60
2018-11-23T07:48:56.562Z,48.30
2018-11-23T07:51:24.287Z,39.60
2018-11-23T07:53:52.761Z,28.83
2018-11-23T07:56:20.844Z,33.30
2018-11-23T07:59:08.320Z,31.17
2018-11-23T08:01:36.438Z,31.97
2018-11-23T08:04:04.540Z,26.77
2018-11-23T08:06:32.303Z,39.67
2018-11-23T08:09:00.888Z,42.10
2018-11-23T08:11:28.962Z,28.17
2018-11-23T08:13:57.061Z,27.83
2018-11-23T08:16:25.132Z,28.40
2018-11-23T08:18:53.202Z,33.87
2018-11-23T08:21:21.426Z,45.93
2018-11-23T08:23:49.566Z,32.47
2018-11-23T08:26:18.132Z,36.13
2018-11-23T08:28:48.697Z,39.37
2018-11-23T08:31:16.846Z,33.00
2018-11-23T08:33:45.340Z,35.57
2018-11-23T08:36:13.113Z,36.50
2018-11-23T08:38:41.193Z,51.40
2018-11-23T08:41:09.262Z,36.87
2018-11-23T08:43:37.051Z,31.30
2018-11-23T08:46:05.533Z,29.30
2018-11-23T08:48:34.020Z,30.13
2018-11-23T08:51:02.196Z,73.37
2018-11-23T08:53:34.253Z,42.53
2018-11-23T08:56:02.564Z,58.93
2018-11-23T08:58:30.646Z,36.83
2018-11-23T09:00:58.787Z,86.70
2018-11-23T09:03:26.877Z,40.60
2018-11-23T09:05:54.612Z,31.87
2018-11-23T09:08:23.354Z,32.47
2018-11-23T09:10:50.753Z,29.27
2018-11-23T09:13:18.474Z,23.70
2018-11-23T09:15:46.137Z,22.40
2018-11-23T09:18:13.796Z,23.03
2018-11-23T09:20:41.473Z,24.20
2018-11-23T09:23:09.655Z,25.47
2018-11-23T09:25:38.182Z,29.50
2018-11-23T09:28:06.318Z,29.67
2018-11-23T09:30:34.797Z,33.10
2018-11-23T09:33:02.459Z,32.43
2018-11-23T09:35:31.053Z,31.60
2018-11-23T09:37:59.522Z,29.43
2018-11-23T09:40:28.273Z,31.73
2018-11-23T09:42:56.646Z,32.10
2018-11-23T09:45:33.663Z,35.37
2018-11-23T09:48:03.413Z,35.40
2018-11-23T09:50:31.499Z,35.63
2018-11-23T09:53:01.046Z,35.63
2018-11-23T09:55:30.108Z,35.20
2018-11-23T09:57:58.613Z,31.20
2018-11-23T10:00:28.568Z,31.80
2018-11-23T10:02:57.859Z,31.87
2018-11-23T10:05:26.434Z,25.10
2018-11-23T10:07:58.818Z,25.40
2018-11-23T10:10:27.207Z,26.23
2018-11-23T10:12:55.680Z,21.53
2018-11-23T10:15:24.441Z,23.73
2018-11-23T10:17:52.892Z,22.93
2018-11-23T10:20:24.524Z,21.00
2018-11-23T10:22:52.882Z,20.57
2018-11-23T10:25:22.628Z,22.50
2018-11-23T10:27:51.190Z,19.87
2018-11-23T10:30:38.722Z,21.67
2018-11-23T10:33:07.589Z,20.67
2018-11-23T10:35:35.783Z,20.30
2018-11-23T10:38:04.469Z,21.27
2018-11-23T10:40:34.600Z,23.10
2018-11-23T10:43:02.677Z,19.53
2018-11-23T10:45:31.982Z,22.23
2018-11-23T10:48:00.876Z,20.33
2018-11-23T10:50:30.363Z,19.43
2018-11-23T10:52:58.972Z,19.20
2018-11-23T10:55:30.740Z,20.73
2018-11-23T10:57:58.971Z,22.30
2018-11-23T11:00:45.702Z,19.57
2018-11-23T11:03:32.885Z,22.57
2018-11-23T11:06:21.737Z,24.03
2018-11-23T11:08:49.705Z,38.13
2018-11-23T11:11:17.392Z,24.20
2018-11-23T11:13:45.956Z,23.73
2018-11-23T11:16:14.622Z,22.80
2018-11-23T11:18:42.778Z,23.53
2018-11-23T11:21:10.829Z,23.77
2018-11-23T11:23:39.446Z,26.33
2018-11-23T11:26:07.963Z,21.97
2018-11-23T11:28:36.639Z,24.10
2018-11-23T11:31:05.015Z,20.87
2018-11-23T11:33:33.193Z,21.10
2018-11-23T11:36:01.259Z,22.20
2018-11-23T11:38:29.141Z,20.10
2018-11-23T11:40:57.236Z,21.87
2018-11-23T11:43:25.427Z,20.70
2018-11-23T11:45:53.071Z,21.33
2018-11-23T11:48:20.836Z,18.60
2018-11-23T11:50:49.002Z,21.27
2018-11-23T11:53:17.199Z,19.27
2018-11-23T11:55:45.793Z,16.03
2018-11-23T11:58:13.462Z,15.20
2018-11-23T12:00:41.119Z,15.80
2018-11-23T12:03:09.601Z,15.83
2018-11-23T12:05:37.269Z,13.30
2018-11-23T12:08:05.469Z,13.50
2018-11-23T12:10:33.558Z,15.40
2018-11-23T12:13:01.776Z,13.97
2018-11-23T12:15:29.889Z,17.10
2018-11-23T12:17:57.911Z,16.80
2018-11-23T12:20:25.838Z,15.73
2018-11-23T12:22:54.333Z,16.57
2018-11-23T12:25:22.978Z,15.67
2018-11-23T12:27:50.951Z,16.40
2018-11-23T12:30:20.463Z,19.77
2018-11-23T12:32:49.798Z,17.97
2018-11-23T12:35:18.802Z,15.60
2018-11-23T12:37:47.036Z,15.90
2018-11-23T12:40:16.185Z,15.53
2018-11-23T12:42:44.742Z,13.67
2018-11-23T12:45:13.935Z,19.03
2018-11-23T12:47:42.462Z,17.40
2018-11-23T12:50:29.980Z,15.87
2018-11-23T12:53:05.809Z,18.77
2018-11-23T12:55:26.059Z,15.97
2018-11-23T12:57:54.469Z,15.23
2018-11-23T13:00:42.097Z,15.97
2018-11-23T13:03:10.212Z,17.40
2018-11-23T13:05:38.258Z,20.47
2018-11-23T13:08:06.639Z,18.40
2018-11-23T13:10:34.875Z,16.23
2018-11-23T13:13:03.506Z,16.47
2018-11-23T13:15:31.953Z,20.13
2018-11-23T13:18:00.665Z,22.13
2018-11-23T13:20:28.405Z,18.43
2018-11-23T13:22:56.469Z,18.80
2018-11-23T13:25:28.670Z,20.27
2018-11-23T13:27:57.239Z,17.07
2018-11-23T13:30:26.962Z,19.20
2018-11-23T13:32:55.351Z,28.20
2018-11-23T13:35:23.108Z,23.90
2018-11-23T13:37:51.316Z,21.20
2018-11-23T13:40:20.973Z,21.07
2018-11-23T13:42:48.754Z,19.67
2018-11-23T13:45:17.518Z,15.67
2018-11-23T13:47:45.760Z,17.43
2018-11-23T13:50:15.264Z,16.93
2018-11-23T13:52:44.937Z,20.77
2018-11-23T13:55:14.063Z,20.93
2018-11-23T13:57:42.574Z,20.80
2018-11-23T14:00:15.838Z,17.23
2018-11-23T14:02:44.786Z,26.13
2018-11-23T14:05:14.712Z,40.67
2018-11-23T14:07:44.050Z,70.43
2018-11-23T14:10:13.461Z,46.07
2018-11-23T14:12:41.561Z,21.37
2018-11-23T14:15:13.160Z,33.33
2018-11-23T14:17:41.505Z,15.27
2018-11-23T14:20:11.280Z,8.13
2018-11-23T14:22:39.171Z,10.20
2018-11-23T14:25:07.592Z,8.80
2018-11-23T14:27:35.343Z,8.53
2018-11-23T14:30:04.045Z,6.30
2018-11-23T14:32:32.234Z,8.57
2018-11-23T14:35:00.454Z,9.73
2018-11-23T14:37:28.509Z,8.33
2018-11-23T14:39:56.668Z,7.47
2018-11-23T14:42:23.649Z,8.00
2018-11-23T14:44:51.920Z,7.70
2018-11-23T14:47:20.059Z,7.63
2018-11-23T14:49:48.586Z,8.30
2018-11-23T14:52:16.449Z,9.67
2018-11-23T14:54:44.259Z,13.03
2018-11-23T14:57:12.119Z,16.20
2018-11-23T14:59:40.511Z,14.43
2018-11-23T15:02:08.244Z,16.53
2018-11-23T15:04:36.431Z,18.53
2018-11-23T15:07:05.104Z,21.73
2018-11-23T15:09:33.284Z,32.17
2018-11-23T15:12:00.631Z,29.57
2018-11-23T15:14:29.134Z,21.60
2018-11-23T15:16:56.411Z,17.50
2018-11-23T15:19:24.642Z,18.33
2018-11-23T15:21:53.164Z,13.67
2018-11-23T15:24:21.329Z,20.93
2018-11-23T15:26:48.729Z,22.93
2018-11-23T15:29:16.456Z,18.90
2018-11-23T15:31:44.769Z,40.17
2018-11-23T15:34:13.875Z,47.40
2018-11-23T15:36:41.780Z,52.07
2018-11-23T15:39:11.030Z,18.90
2018-11-23T15:41:39.755Z,31.70
2018-11-23T15:44:07.777Z,21.93
2018-11-23T15:46:35.459Z,16.53
2018-11-23T15:49:03.584Z,18.03
2018-11-23T15:51:31.724Z,32.77
2018-11-23T15:53:59.520Z,14.87
2018-11-23T15:56:27.361Z,39.07
2018-11-23T15:58:55.449Z,18.17
2018-11-23T16:01:23.934Z,17.27
2018-11-23T16:03:52.230Z,16.90
2018-11-23T16:06:20.368Z,23.93
2018-11-23T16:08:48.854Z,27.52
2018-11-23T16:11:17.368Z,17.80
2018-11-23T16:13:45.848Z,24.17
2018-11-23T16:16:13.509Z,16.83
2018-11-23T16:18:41.584Z,25.50
2018-11-23T16:21:09.688Z,24.70
2018-11-23T16:23:38.178Z,33.60
2018-11-23T16:26:06.248Z,34.47
2018-11-23T16:28:34.728Z,96.03
2018-11-23T16:31:02.894Z,44.30
2018-11-23T16:33:30.720Z,22.27
2018-11-23T16:35:59.778Z,24.77
2018-11-23T16:38:27.435Z,18.03
2018-11-23T16:40:56.283Z,17.40
2018-11-23T16:43:24.362Z,19.60
2018-11-23T16:45:52.924Z,25.53
2018-11-23T16:48:21.983Z,26.70
2018-11-23T16:50:50.814Z,21.90
2018-11-23T16:53:19.398Z,14.70
2018-11-23T16:55:47.980Z,17.93
2018-11-23T16:58:16.576Z,20.93
2018-11-23T17:00:46.090Z,19.67
2018-11-23T17:03:15.699Z,17.60
2018-11-23T17:05:45.705Z,12.53
2018-11-23T17:08:14.099Z,12.43
2018-11-23T17:10:42.284Z,21.87
2018-11-23T17:13:09.979Z,13.23
2018-11-23T17:15:37.801Z,18.30
2018-11-23T17:18:06.206Z,14.50
2018-11-23T17:20:34.794Z,14.53
2018-11-23T17:23:04.223Z,13.03
2018-11-23T17:25:33.026Z,16.10
2018-11-23T17:28:02.307Z,15.03
2018-11-23T17:30:31.193Z,13.63
2018-11-23T17:32:59.659Z,14.63
2018-11-23T17:35:28.255Z,13.43
2018-11-23T17:37:56.266Z,14.17
2018-11-23T17:40:25.619Z,14.60
2018-11-23T17:42:53.215Z,12.17
2018-11-23T17:45:40.754Z,12.07
2018-11-23T17:48:09.085Z,11.47
2018-11-23T17:50:38.105Z,9.77
2018-11-23T17:53:06.201Z,11.10
2018-11-23T17:55:34.775Z,10.13
2018-11-23T17:58:02.959Z,8.70
2018-11-23T18:00:38.935Z,9.47
2018-11-23T18:03:02.245Z,10.40
2018-11-23T18:05:31.101Z,9.40
2018-11-23T18:07:59.952Z,8.73
2018-11-23T18:10:29.322Z,9.97
2018-11-23T18:12:58.544Z,10.00
2018-11-23T18:15:45.774Z,8.10
2018-11-23T18:18:33.329Z,9.77
2018-11-23T18:21:01.099Z,10.20
2018-11-23T18:23:29.604Z,9.93
2018-11-23T18:25:58.235Z,8.77
2018-11-23T18:28:26.257Z,10.47
2018-11-23T18:30:53.911Z,8.90
2018-11-23T18:33:22.001Z,10.00
2018-11-23T18:35:50.210Z,8.97
2018-11-23T18:38:18.680Z,8.17
2018-11-23T18:40:47.225Z,8.40
2018-11-23T18:43:15.339Z,10.53
2018-11-23T18:45:43.014Z,9.33
2018-11-23T18:48:10.892Z,11.17
2018-11-23T18:50:39.139Z,10.97
2018-11-23T18:53:07.240Z,9.83
2018-11-23T18:55:35.716Z,9.57
2018-11-23T18:58:04.217Z,11.63
2018-11-23T19:00:32.679Z,9.83
2018-11-23T19:03:00.462Z,10.83
2018-11-23T19:05:28.760Z,10.77
2018-11-23T19:07:56.690Z,11.93
2018-11-23T19:10:25.196Z,13.30
2018-11-23T19:12:52.872Z,13.13
2018-11-23T19:15:25.651Z,11.23
2018-11-23T19:17:49.480Z,16.40
2018-11-23T19:20:18.962Z,11.57
2018-11-23T19:22:48.241Z,16.50
2018-11-23T19:25:15.923Z,13.43
2018-11-23T19:27:44.452Z,27.93
2018-11-23T19:30:15.799Z,41.23
2018-11-23T19:32:44.174Z,13.37
2018-11-23T19:35:12.849Z,18.90
2018-11-23T19:40:08.411Z,12.23
2018-11-23T19:42:35.887Z,11.85
2018-11-23T19:45:03.448Z,12.33
2018-11-23T19:47:30.946Z,17.90
2018-11-23T19:49:58.395Z,25.30
2018-11-23T19:52:25.899Z,28.47
2018-11-23T19:54:53.390Z,23.20
2018-11-23T19:57:20.893Z,13.27
2018-11-23T19:59:48.376Z,21.17
2018-11-23T20:02:16.078Z,16.73
2018-11-23T20:04:43.559Z,15.30
2018-11-23T20:07:11.069Z,17.43
2018-11-23T20:09:40.024Z,20.60
2018-11-23T20:12:06.069Z,22.23
2018-11-23T20:14:33.958Z,26.63
2018-11-23T20:17:01.712Z,32.63
2018-11-23T20:19:29.465Z,28.60
2018-11-23T20:21:56.949Z,30.13
2018-11-23T20:24:25.170Z,19.30
2018-11-23T20:26:52.940Z,15.27
2018-11-23T20:29:20.972Z,17.07
2018-11-23T20:31:48.675Z,13.73
2018-11-23T20:34:26.046Z,17.77
2018-11-23T20:36:53.869Z,29.00
2018-11-23T20:39:21.919Z,24.70
2018-11-23T20:41:49.999Z,19.83
2018-11-23T20:44:17.680Z,15.43
2018-11-23T20:46:51.944Z,14.63
2018-11-23T20:49:19.620Z,16.80
2018-11-23T20:51:47.582Z,15.77
2018-11-23T20:54:15.313Z,15.30
2018-11-23T20:56:42.845Z,12.30
2018-11-23T20:59:10.670Z,12.67
2018-11-23T21:01:38.721Z,13.50
2018-11-23T21:04:06.639Z,12.23
2018-11-23T21:06:34.919Z,14.03
2018-11-23T21:09:02.715Z,15.97
2018-11-23T21:11:30.513Z,15.67
2018-11-23T21:13:57.975Z,21.37
2018-11-23T21:16:25.634Z,17.13
2018-11-23T21:18:53.039Z,16.20
2018-11-23T21:21:20.424Z,16.80
2018-11-23T21:23:48.193Z,15.33
2018-11-23T21:26:15.959Z,14.53
2018-11-23T21:28:43.424Z,15.47
2018-11-23T21:31:10.858Z,14.40
2018-11-23T21:33:38.353Z,13.70
2018-11-23T21:36:05.910Z,14.93
2018-11-23T21:38:33.369Z,15.93
2018-11-23T21:41:00.953Z,19.47
2018-11-23T21:43:28.395Z,23.63
2018-11-23T21:45:55.908Z,16.43
2018-11-23T21:48:23.548Z,17.67
2018-11-23T21:50:50.985Z,16.00
2018-11-23T21:53:18.421Z,18.43
2018-11-23T21:55:45.829Z,17.83
2018-11-23T21:58:13.298Z,18.67
2018-11-23T22:00:40.790Z,18.00
2018-11-23T22:03:08.278Z,17.43
2018-11-23T22:05:35.728Z,17.13
2018-11-23T22:08:03.185Z,20.40
2018-11-23T22:10:30.662Z,20.55
2018-11-23T22:12:58.170Z,15.13
2018-11-23T22:15:25.628Z,18.33
2018-11-23T22:17:54.337Z,17.80
2018-11-23T22:20:22.301Z,16.67
2018-11-23T22:22:49.707Z,18.30
2018-11-23T22:25:18.356Z,18.33
2018-11-23T22:27:45.880Z,16.13
2018-11-23T22:30:21.526Z,17.77
2018-11-23T22:32:49.014Z,25.50
2018-11-23T22:35:16.428Z,39.67
2018-11-23T22:37:43.912Z,18.57
2018-11-23T22:40:13.513Z,18.83
2018-11-23T22:42:42.124Z,15.43
2018-11-23T22:45:10.908Z,15.43
2018-11-23T22:47:38.329Z,16.00
2018-11-23T22:50:15.915Z,17.00
2018-11-23T22:52:43.374Z,22.47
2018-11-23T22:55:11.851Z,16.00
2018-11-23T22:57:39.338Z,16.17
2018-11-23T23:00:30.359Z,14.67
2018-11-23T23:02:57.864Z,13.77
2018-11-23T23:05:25.302Z,16.97
2018-11-23T23:07:52.713Z,15.80
2018-11-23T23:10:20.155Z,16.37
2018-11-23T23:12:47.734Z,16.23
2018-11-23T23:15:15.334Z,17.40
2018-11-23T23:17:42.816Z,17.00
2018-11-23T23:20:15.280Z,17.77
2018-11-23T23:22:42.740Z,17.13
2018-11-23T23:25:11.045Z,17.43
2018-11-23T23:27:38.519Z,17.63
2018-11-23T23:30:09.049Z,17.93
2018-11-23T23:32:36.836Z,15.83
2018-11-23T23:35:05.416Z,18.27
2018-11-23T23:37:32.833Z,17.00
2018-11-23T23:40:00.235Z,18.20
2018-11-23T23:42:27.673Z,19.40
2018-11-23T23:44:55.083Z,22.50
2018-11-23T23:47:22.506Z,33.37
2018-11-23T23:49:49.960Z,25.60
2018-11-23T23:52:17.343Z,19.43
2018-11-23T23:54:44.765Z,19.57
2018-11-23T23:57:12.200Z,20.00
2018-11-23T23:59:39.645Z,19.60
